Pagrindinis puslapis
METAR-TAF:

METAR-TAF

Oro uostai :

Adis Abeba, Etiopija

platuma: 08-59N, ilguma: 038-48E, Aukštis: 2355 m

Dabartinis oras

Ataskaita buvo paskelbta 15 minutes, ne 10:00 UTC
Vėjas 18 kt iš Rytų
Temperatūra 22°C
Drėgmė 41%
Slėgis 1026 hPa
Matomumas 10 km arba daugiau
Mažai debesys ne aukštis 2500 ft

METAR: HAAB 141000Z 10018KT 9999 FEW025 22/08 Q1026

Laikas: 13:15 (10:15 UTC)

Prognozė

Ataskaita buvo paskelbta 6 valandos ir 45 minutes, ne 03:30 UTC
Prognozė galioja nuo 14 metu 06 UTC su 15 metu 12 UTC
Vėjas 9 kt iš Pietų/Pietryčių
Matomumas 10 km arba daugiau
Su prošvaistėmis ne aukštis 3000 ft
Išsisklaidę debesys ne aukštis 8000 ft
Tapsmas
nuo 14 metu 19 UTC su 15 metu 12 UTC
Vėjas 5 kt iš Rytų

TAF: HAAB 140330Z 1406/1512 15009KT 9999 BKN030 SCT080 BECMG 1419/1512 09005KT

Orai ataskaitas ir orų prognozės (METAR, TAF).

turimą stotys yra geltonos ir raudonos taškus žemėlapyje.

Perkelti pele per norėdami pamatyti stoties vardą.

Tada spustelėkite, norėdami matyti oro stebėjimo ir prognozės.

Norėdami pakeisti žemėlapį: spustelėkite ant žalios mygtukų su juodo kryžiaus žemyn,; žalią mygtuką su brūkšneliu, jei norite nutolinti; arba žalių rodyklių gretimoms žemėlapius.


METAR-TAF: